TAF Text Data
IDs:
Format:
Raw Decoded Include METAR

Data at: 2111 UTC 01 Dec 2021

KTPA 012100Z 0121/0224 28006KT P6SM FEW045 SCT250
  FM020100 VRB03KT P6SM FEW250
  FM021500 35006KT P6SM SKC